KMMT/MMT METAR and TAF weather

Enter ICAO airport designator
Station Type Date Time Source
KMMT METAR 2019/10/15 07:56 UTC NOAA

KMMT 150756Z AUTO 00000KT 10SM CLR 12/12 A3008 RMK AO2 SLP188 T01150115 $


Station Type Date Time Source
KMMT Decoded METAR 2019/10/15 07:56 UTC NOAA

McEntire Air National Guard Weather Facility Base, SC, United States (KMMT) 33-55N 080-48W
Oct 15, 2019 - 03:56 AM EDT / 2019.10.15 0756 UTC
Wind: Calm:0
Visibility: 10 mile(s):0
Sky conditions: clear
Temperature: 52.7 F (11.5 C)
Dew Point: 52.7 F (11.5 C)
Relative Humidity: 100%
Pressure (altimeter): 30.08 in. Hg (1018 hPa)
ob: KMMT 150756Z AUTO 00000KT 10SM CLR 12/12 A3008 RMK AO2 SLP188 T01150115
cycle: 8

Station Type Date Time Source
KMMT TAF 2019/10/15 07:06 UTC NOAA

TAF TAF KMMT 150700Z 1507/1613 VRB06KT 9999 FEW200 QNH3006INS
BECMG 1515/1516 21009KT 9999 SCT100 BKN150 QNH3008INS
BECMG 1517/1518 21009KT 8000 -SHRA SCT030 BKN050 OVC100 QNH3000INS
BECMG 1523/1524 24006KT 6000 -SHRA BKN020 OVC050 QNH3002INS
BECMG 1602/1603 21006KT 9999 NSW BKN015 OVC030 QNH2996INS
BECMG 1605/1606 21006KT 9999 BKN008 OVC020 QNH2990INS
TEMPO 1607/1613 OVC005 TX29/1521Z TN11/1511Z

Example: see airport list